sensor_id;sensor_type;location;lat;lon;timestamp;P1;durP1;ratioP1;P2;durP2;ratioP2
4889;SDS011;2459;42.268;23.112;2023-04-10T00:00:27;49.30;;;21.37;;
4889;SDS011;2459;42.268;23.112;2023-04-10T00:02:55;45.97;;;23.47;;
4889;SDS011;2459;42.268;23.112;2023-04-10T00:05:21;70.13;;;26.87;;
4889;SDS011;2459;42.268;23.112;2023-04-10T00:07:48;50.83;;;25.60;;
4889;SDS011;2459;42.268;23.112;2023-04-10T00:10:14;49.03;;;25.93;;
4889;SDS011;2459;42.268;23.112;2023-04-10T00:12:41;57.63;;;26.50;;
4889;SDS011;2459;42.268;23.112;2023-04-10T00:15:08;54.33;;;25.27;;
4889;SDS011;2459;42.268;23.112;2023-04-10T00:17:36;63.53;;;29.50;;
4889;SDS011;2459;42.268;23.112;2023-04-10T00:20:05;61.13;;;27.60;;
4889;SDS011;2459;42.268;23.112;2023-04-10T00:22:31;51.43;;;25.67;;
4889;SDS011;2459;42.268;23.112;2023-04-10T00:24:58;62.60;;;30.37;;
4889;SDS011;2459;42.268;23.112;2023-04-10T00:27:24;63.47;;;31.50;;
4889;SDS011;2459;42.268;23.112;2023-04-10T00:29:51;61.23;;;28.50;;
4889;SDS011;2459;42.268;23.112;2023-04-10T00:32:17;55.30;;;30.33;;
4889;SDS011;2459;42.268;23.112;2023-04-10T00:34:45;62.53;;;28.30;;
4889;SDS011;2459;42.268;23.112;2023-04-10T00:37:11;59.50;;;26.97;;
4889;SDS011;2459;42.268;23.112;2023-04-10T00:39:38;64.00;;;27.90;;
4889;SDS011;2459;42.268;23.112;2023-04-10T00:42:04;64.90;;;28.30;;
4889;SDS011;2459;42.268;23.112;2023-04-10T00:44:33;59.53;;;27.97;;
4889;SDS011;2459;42.268;23.112;2023-04-10T00:47:01;62.60;;;30.17;;
4889;SDS011;2459;42.268;23.112;2023-04-10T00:49:28;65.47;;;27.57;;
4889;SDS011;2459;42.268;23.112;2023-04-10T00:51:56;55.80;;;27.07;;
4889;SDS011;2459;42.268;23.112;2023-04-10T00:54:23;53.00;;;24.07;;
4889;SDS011;2459;42.268;23.112;2023-04-10T00:56:50;67.50;;;29.33;;
4889;SDS011;2459;42.268;23.112;2023-04-10T00:59:16;52.17;;;27.07;;
4889;SDS011;2459;42.268;23.112;2023-04-10T01:01:45;57.07;;;26.43;;
4889;SDS011;2459;42.268;23.112;2023-04-10T01:04:12;46.17;;;21.97;;
4889;SDS011;2459;42.268;23.112;2023-04-10T01:06:45;56.43;;;20.23;;
4889;SDS011;2459;42.268;23.112;2023-04-10T01:09:16;55.00;;;26.67;;
4889;SDS011;2459;42.268;23.112;2023-04-10T01:11:50;53.20;;;23.70;;
4889;SDS011;2459;42.268;23.112;2023-04-10T01:14:22;55.73;;;25.60;;
4889;SDS011;2459;42.268;23.112;2023-04-10T01:16:52;60.37;;;26.47;;
4889;SDS011;2459;42.268;23.112;2023-04-10T01:19:24;52.43;;;27.80;;
4889;SDS011;2459;42.268;23.112;2023-04-10T01:21:52;71.17;;;25.30;;
4889;SDS011;2459;42.268;23.112;2023-04-10T01:24:23;49.77;;;25.17;;
4889;SDS011;2459;42.268;23.112;2023-04-10T01:27:02;54.90;;;25.93;;
4889;SDS011;2459;42.268;23.112;2023-04-10T01:29:31;53.37;;;26.00;;
4889;SDS011;2459;42.268;23.112;2023-04-10T01:31:59;51.13;;;26.37;;
4889;SDS011;2459;42.268;23.112;2023-04-10T01:34:31;55.27;;;25.40;;
4889;SDS011;2459;42.268;23.112;2023-04-10T01:36:58;56.30;;;25.37;;
4889;SDS011;2459;42.268;23.112;2023-04-10T01:39:25;48.97;;;26.50;;
4889;SDS011;2459;42.268;23.112;2023-04-10T01:41:53;60.63;;;28.07;;
4889;SDS011;2459;42.268;23.112;2023-04-10T01:44:22;55.53;;;27.60;;
4889;SDS011;2459;42.268;23.112;2023-04-10T01:46:51;52.83;;;26.93;;
4889;SDS011;2459;42.268;23.112;2023-04-10T01:49:18;60.37;;;25.60;;
4889;SDS011;2459;42.268;23.112;2023-04-10T01:51:45;71.57;;;27.30;;
4889;SDS011;2459;42.268;23.112;2023-04-10T01:54:12;51.20;;;27.70;;
4889;SDS011;2459;42.268;23.112;2023-04-10T01:56:40;55.87;;;26.20;;
4889;SDS011;2459;42.268;23.112;2023-04-10T01:59:06;44.60;;;23.07;;
4889;SDS011;2459;42.268;23.112;2023-04-10T02:01:34;46.37;;;23.73;;
4889;SDS011;2459;42.268;23.112;2023-04-10T02:04:01;51.27;;;23.90;;
4889;SDS011;2459;42.268;23.112;2023-04-10T02:06:28;41.87;;;20.73;;
4889;SDS011;2459;42.268;23.112;2023-04-10T02:08:59;45.97;;;19.83;;
4889;SDS011;2459;42.268;23.112;2023-04-10T02:11:30;44.70;;;23.33;;
4889;SDS011;2459;42.268;23.112;2023-04-10T02:14:00;42.47;;;21.23;;
4889;SDS011;2459;42.268;23.112;2023-04-10T02:16:28;39.30;;;18.73;;
4889;SDS011;2459;42.268;23.112;2023-04-10T02:18:54;46.73;;;24.80;;
4889;SDS011;2459;42.268;23.112;2023-04-10T02:21:22;41.30;;;23.27;;
4889;SDS011;2459;42.268;23.112;2023-04-10T02:23:49;43.80;;;23.20;;
4889;SDS011;2459;42.268;23.112;2023-04-10T02:26:15;65.20;;;28.00;;
4889;SDS011;2459;42.268;23.112;2023-04-10T02:28:42;71.07;;;31.30;;
4889;SDS011;2459;42.268;23.112;2023-04-10T02:31:11;58.77;;;28.93;;
4889;SDS011;2459;42.268;23.112;2023-04-10T02:33:37;45.47;;;25.03;;
4889;SDS011;2459;42.268;23.112;2023-04-10T02:36:04;60.20;;;27.37;;
4889;SDS011;2459;42.268;23.112;2023-04-10T02:38:32;50.80;;;27.27;;
4889;SDS011;2459;42.268;23.112;2023-04-10T02:40:59;59.30;;;26.07;;
4889;SDS011;2459;42.268;23.112;2023-04-10T02:43:25;46.17;;;22.80;;
4889;SDS011;2459;42.268;23.112;2023-04-10T02:45:52;39.50;;;20.67;;
4889;SDS011;2459;42.268;23.112;2023-04-10T02:48:19;33.67;;;18.63;;
4889;SDS011;2459;42.268;23.112;2023-04-10T02:50:45;29.53;;;15.63;;
4889;SDS011;2459;42.268;23.112;2023-04-10T02:53:12;25.63;;;15.20;;
4889;SDS011;2459;42.268;23.112;2023-04-10T02:55:40;26.00;;;14.53;;
4889;SDS011;2459;42.268;23.112;2023-04-10T02:58:07;40.17;;;18.57;;
4889;SDS011;2459;42.268;23.112;2023-04-10T03:00:33;35.33;;;18.00;;
4889;SDS011;2459;42.268;23.112;2023-04-10T03:03:03;45.80;;;23.17;;
4889;SDS011;2459;42.268;23.112;2023-04-10T03:05:30;43.73;;;22.73;;
4889;SDS011;2459;42.268;23.112;2023-04-10T03:07:56;52.07;;;24.47;;
4889;SDS011;2459;42.268;23.112;2023-04-10T03:10:22;42.20;;;20.67;;
4889;SDS011;2459;42.268;23.112;2023-04-10T03:12:50;40.93;;;21.13;;
4889;SDS011;2459;42.268;23.112;2023-04-10T03:15:17;41.67;;;22.17;;
4889;SDS011;2459;42.268;23.112;2023-04-10T03:17:43;37.33;;;19.20;;
4889;SDS011;2459;42.268;23.112;2023-04-10T03:20:10;40.03;;;19.83;;
4889;SDS011;2459;42.268;23.112;2023-04-10T03:22:37;42.83;;;21.10;;
4889;SDS011;2459;42.268;23.112;2023-04-10T03:25:04;44.80;;;23.90;;
4889;SDS011;2459;42.268;23.112;2023-04-10T03:27:30;44.07;;;22.67;;
4889;SDS011;2459;42.268;23.112;2023-04-10T03:30:00;30.03;;;15.73;;
4889;SDS011;2459;42.268;23.112;2023-04-10T03:32:26;38.63;;;18.57;;
4889;SDS011;2459;42.268;23.112;2023-04-10T03:34:55;39.20;;;21.00;;
4889;SDS011;2459;42.268;23.112;2023-04-10T03:37:21;41.63;;;20.60;;
4889;SDS011;2459;42.268;23.112;2023-04-10T03:39:48;41.07;;;21.97;;
4889;SDS011;2459;42.268;23.112;2023-04-10T03:42:14;39.03;;;19.60;;
4889;SDS011;2459;42.268;23.112;2023-04-10T03:44:41;46.47;;;23.70;;
4889;SDS011;2459;42.268;23.112;2023-04-10T03:47:08;27.10;;;12.47;;
4889;SDS011;2459;42.268;23.112;2023-04-10T03:49:35;45.90;;;20.90;;
4889;SDS011;2459;42.268;23.112;2023-04-10T03:52:01;61.83;;;26.37;;
4889;SDS011;2459;42.268;23.112;2023-04-10T03:54:28;50.93;;;25.13;;
4889;SDS011;2459;42.268;23.112;2023-04-10T03:56:54;41.93;;;21.10;;
4889;SDS011;2459;42.268;23.112;2023-04-10T03:59:21;41.97;;;20.07;;
4889;SDS011;2459;42.268;23.112;2023-04-10T04:01:47;45.63;;;23.90;;
4889;SDS011;2459;42.268;23.112;2023-04-10T04:04:15;26.80;;;14.90;;
4889;SDS011;2459;42.268;23.112;2023-04-10T04:06:42;15.17;;;7.80;;
4889;SDS011;2459;42.268;23.112;2023-04-10T04:09:08;19.70;;;11.93;;
4889;SDS011;2459;42.268;23.112;2023-04-10T04:11:35;32.20;;;14.67;;
4889;SDS011;2459;42.268;23.112;2023-04-10T04:14:02;47.83;;;17.70;;
4889;SDS011;2459;42.268;23.112;2023-04-10T04:16:29;29.67;;;17.83;;
4889;SDS011;2459;42.268;23.112;2023-04-10T04:18:55;37.70;;;16.13;;
4889;SDS011;2459;42.268;23.112;2023-04-10T04:21:23;31.03;;;15.17;;
4889;SDS011;2459;42.268;23.112;2023-04-10T04:23:49;29.90;;;15.90;;
4889;SDS011;2459;42.268;23.112;2023-04-10T04:26:16;30.43;;;16.50;;
4889;SDS011;2459;42.268;23.112;2023-04-10T04:28:42;31.60;;;15.27;;
4889;SDS011;2459;42.268;23.112;2023-04-10T04:31:09;36.07;;;17.97;;
4889;SDS011;2459;42.268;23.112;2023-04-10T04:33:35;31.13;;;18.30;;
4889;SDS011;2459;42.268;23.112;2023-04-10T04:36:02;28.37;;;17.60;;
4889;SDS011;2459;42.268;23.112;2023-04-10T04:38:30;32.90;;;18.93;;
4889;SDS011;2459;42.268;23.112;2023-04-10T04:40:57;37.73;;;19.53;;
4889;SDS011;2459;42.268;23.112;2023-04-10T04:43:23;38.43;;;20.07;;
4889;SDS011;2459;42.268;23.112;2023-04-10T04:45:50;39.50;;;19.90;;
4889;SDS011;2459;42.268;23.112;2023-04-10T04:48:16;51.10;;;23.63;;
4889;SDS011;2459;42.268;23.112;2023-04-10T04:50:43;62.77;;;23.40;;
4889;SDS011;2459;42.268;23.112;2023-04-10T04:53:09;34.80;;;21.07;;
4889;SDS011;2459;42.268;23.112;2023-04-10T04:55:37;45.10;;;23.70;;
4889;SDS011;2459;42.268;23.112;2023-04-10T04:58:04;55.13;;;28.27;;
4889;SDS011;2459;42.268;23.112;2023-04-10T05:00:30;41.90;;;22.00;;
4889;SDS011;2459;42.268;23.112;2023-04-10T05:02:57;40.50;;;22.10;;
4889;SDS011;2459;42.268;23.112;2023-04-10T05:05:25;63.43;;;24.87;;
4889;SDS011;2459;42.268;23.112;2023-04-10T05:07:52;48.27;;;25.97;;
4889;SDS011;2459;42.268;23.112;2023-04-10T05:10:19;58.93;;;26.17;;
4889;SDS011;2459;42.268;23.112;2023-04-10T05:12:47;50.47;;;20.10;;
4889;SDS011;2459;42.268;23.112;2023-04-10T05:15:15;52.27;;;23.63;;
4889;SDS011;2459;42.268;23.112;2023-04-10T05:17:42;48.80;;;23.07;;
4889;SDS011;2459;42.268;23.112;2023-04-10T05:20:09;47.00;;;21.50;;
4889;SDS011;2459;42.268;23.112;2023-04-10T05:22:35;50.20;;;25.00;;
4889;SDS011;2459;42.268;23.112;2023-04-10T05:25:02;53.30;;;21.60;;
4889;SDS011;2459;42.268;23.112;2023-04-10T05:27:30;56.37;;;20.40;;
4889;SDS011;2459;42.268;23.112;2023-04-10T05:29:58;68.13;;;28.43;;
4889;SDS011;2459;42.268;23.112;2023-04-10T05:32:24;71.70;;;29.77;;
4889;SDS011;2459;42.268;23.112;2023-04-10T05:34:51;66.87;;;30.20;;
4889;SDS011;2459;42.268;23.112;2023-04-10T05:37:17;63.37;;;30.70;;
4889;SDS011;2459;42.268;23.112;2023-04-10T05:39:45;80.83;;;27.87;;
4889;SDS011;2459;42.268;23.112;2023-04-10T05:42:12;50.50;;;24.53;;
4889;SDS011;2459;42.268;23.112;2023-04-10T05:44:38;49.77;;;25.77;;
4889;SDS011;2459;42.268;23.112;2023-04-10T05:47:06;46.70;;;25.00;;
4889;SDS011;2459;42.268;23.112;2023-04-10T05:49:33;53.80;;;28.40;;
4889;SDS011;2459;42.268;23.112;2023-04-10T05:52:00;90.83;;;29.20;;
4889;SDS011;2459;42.268;23.112;2023-04-10T05:54:26;55.43;;;28.03;;
4889;SDS011;2459;42.268;23.112;2023-04-10T05:56:53;59.50;;;28.60;;
4889;SDS011;2459;42.268;23.112;2023-04-10T05:59:20;55.63;;;28.90;;
4889;SDS011;2459;42.268;23.112;2023-04-10T06:01:47;43.77;;;20.87;;
4889;SDS011;2459;42.268;23.112;2023-04-10T06:04:15;43.13;;;23.67;;
4889;SDS011;2459;42.268;23.112;2023-04-10T06:06:41;48.03;;;22.23;;
4889;SDS011;2459;42.268;23.112;2023-04-10T06:09:08;46.80;;;22.10;;
4889;SDS011;2459;42.268;23.112;2023-04-10T06:11:35;49.67;;;25.33;;
4889;SDS011;2459;42.268;23.112;2023-04-10T06:14:01;65.20;;;23.83;;
4889;SDS011;2459;42.268;23.112;2023-04-10T06:16:28;39.27;;;22.23;;
4889;SDS011;2459;42.268;23.112;2023-04-10T06:18:54;42.73;;;19.17;;
4889;SDS011;2459;42.268;23.112;2023-04-10T06:21:22;19.37;;;6.70;;
4889;SDS011;2459;42.268;23.112;2023-04-10T06:23:49;22.17;;;12.47;;
4889;SDS011;2459;42.268;23.112;2023-04-10T06:26:16;17.90;;;7.73;;
4889;SDS011;2459;42.268;23.112;2023-04-10T06:28:42;16.27;;;8.90;;
4889;SDS011;2459;42.268;23.112;2023-04-10T06:31:10;8.83;;;5.70;;
4889;SDS011;2459;42.268;23.112;2023-04-10T06:33:37;7.87;;;5.33;;
4889;SDS011;2459;42.268;23.112;2023-04-10T06:36:04;9.00;;;6.07;;
4889;SDS011;2459;42.268;23.112;2023-04-10T06:38:32;6.60;;;3.37;;
4889;SDS011;2459;42.268;23.112;2023-04-10T06:41:01;20.70;;;7.63;;
4889;SDS011;2459;42.268;23.112;2023-04-10T06:43:28;11.67;;;7.67;;
4889;SDS011;2459;42.268;23.112;2023-04-10T06:45:56;7.50;;;5.70;;
4889;SDS011;2459;42.268;23.112;2023-04-10T06:48:23;13.43;;;6.70;;
4889;SDS011;2459;42.268;23.112;2023-04-10T06:50:52;254.20;;;23.40;;
4889;SDS011;2459;42.268;23.112;2023-04-10T06:53:19;26.13;;;6.87;;
4889;SDS011;2459;42.268;23.112;2023-04-10T06:55:47;14.90;;;5.30;;
4889;SDS011;2459;42.268;23.112;2023-04-10T06:58:13;27.17;;;7.77;;
4889;SDS011;2459;42.268;23.112;2023-04-10T07:00:40;16.13;;;6.53;;
4889;SDS011;2459;42.268;23.112;2023-04-10T07:03:07;17.13;;;5.67;;
4889;SDS011;2459;42.268;23.112;2023-04-10T07:05:33;28.37;;;6.93;;
4889;SDS011;2459;42.268;23.112;2023-04-10T07:07:59;7.80;;;4.80;;
4889;SDS011;2459;42.268;23.112;2023-04-10T07:10:26;10.97;;;5.10;;
4889;SDS011;2459;42.268;23.112;2023-04-10T07:12:55;28.87;;;4.40;;
4889;SDS011;2459;42.268;23.112;2023-04-10T07:15:23;23.10;;;5.03;;
4889;SDS011;2459;42.268;23.112;2023-04-10T07:17:49;8.20;;;5.27;;
4889;SDS011;2459;42.268;23.112;2023-04-10T07:20:16;8.10;;;5.23;;
4889;SDS011;2459;42.268;23.112;2023-04-10T07:22:42;15.60;;;6.93;;
4889;SDS011;2459;42.268;23.112;2023-04-10T07:25:11;27.27;;;9.73;;
4889;SDS011;2459;42.268;23.112;2023-04-10T07:27:38;8.33;;;6.17;;
4889;SDS011;2459;42.268;23.112;2023-04-10T07:30:07;12.80;;;7.87;;
4889;SDS011;2459;42.268;23.112;2023-04-10T07:32:33;65.93;;;12.20;;
4889;SDS011;2459;42.268;23.112;2023-04-10T07:35:04;23.27;;;9.90;;
4889;SDS011;2459;42.268;23.112;2023-04-10T07:37:31;45.70;;;8.53;;
4889;SDS011;2459;42.268;23.112;2023-04-10T07:39:57;12.23;;;5.53;;
4889;SDS011;2459;42.268;23.112;2023-04-10T07:42:24;28.50;;;7.50;;
4889;SDS011;2459;42.268;23.112;2023-04-10T07:44:51;11.23;;;5.17;;
4889;SDS011;2459;42.268;23.112;2023-04-10T07:47:18;33.30;;;9.33;;
4889;SDS011;2459;42.268;23.112;2023-04-10T07:49:45;8.20;;;5.13;;
4889;SDS011;2459;42.268;23.112;2023-04-10T07:52:11;11.50;;;6.20;;
4889;SDS011;2459;42.268;23.112;2023-04-10T07:54:38;117.70;;;17.23;;
4889;SDS011;2459;42.268;23.112;2023-04-10T07:57:04;344.60;;;44.87;;
4889;SDS011;2459;42.268;23.112;2023-04-10T07:59:31;11.00;;;4.50;;
4889;SDS011;2459;42.268;23.112;2023-04-10T08:01:58;12.70;;;5.53;;
4889;SDS011;2459;42.268;23.112;2023-04-10T08:04:25;75.03;;;12.60;;
4889;SDS011;2459;42.268;23.112;2023-04-10T08:06:52;169.50;;;16.83;;
4889;SDS011;2459;42.268;23.112;2023-04-10T08:09:18;62.63;;;10.33;;
4889;SDS011;2459;42.268;23.112;2023-04-10T08:11:46;216.17;;;27.70;;
4889;SDS011;2459;42.268;23.112;2023-04-10T08:14:13;5.70;;;4.17;;
4889;SDS011;2459;42.268;23.112;2023-04-10T08:16:40;9.47;;;6.40;;
4889;SDS011;2459;42.268;23.112;2023-04-10T08:19:07;133.90;;;20.73;;
4889;SDS011;2459;42.268;23.112;2023-04-10T08:21:35;67.53;;;12.90;;
4889;SDS011;2459;42.268;23.112;2023-04-10T08:24:01;75.43;;;12.37;;
4889;SDS011;2459;42.268;23.112;2023-04-10T08:26:28;106.13;;;8.73;;
4889;SDS011;2459;42.268;23.112;2023-04-10T08:28:55;12.63;;;5.30;;
4889;SDS011;2459;42.268;23.112;2023-04-10T08:31:23;12.20;;;6.90;;
4889;SDS011;2459;42.268;23.112;2023-04-10T08:33:50;9.30;;;6.13;;
4889;SDS011;2459;42.268;23.112;2023-04-10T08:36:16;5.97;;;4.40;;
4889;SDS011;2459;42.268;23.112;2023-04-10T08:38:44;103.77;;;13.40;;
4889;SDS011;2459;42.268;23.112;2023-04-10T08:41:11;37.27;;;7.03;;
4889;SDS011;2459;42.268;23.112;2023-04-10T08:43:38;17.13;;;9.20;;
4889;SDS011;2459;42.268;23.112;2023-04-10T08:46:05;14.40;;;6.27;;
4889;SDS011;2459;42.268;23.112;2023-04-10T08:48:34;25.73;;;8.10;;
4889;SDS011;2459;42.268;23.112;2023-04-10T08:51:01;86.00;;;8.10;;
4889;SDS011;2459;42.268;23.112;2023-04-10T08:53:29;27.43;;;7.43;;
4889;SDS011;2459;42.268;23.112;2023-04-10T08:55:57;17.90;;;6.93;;
4889;SDS011;2459;42.268;23.112;2023-04-10T08:58:26;7.57;;;5.17;;
4889;SDS011;2459;42.268;23.112;2023-04-10T09:00:53;15.00;;;6.93;;
4889;SDS011;2459;42.268;23.112;2023-04-10T09:03:20;7.70;;;5.30;;
4889;SDS011;2459;42.268;23.112;2023-04-10T09:05:46;13.13;;;7.30;;
4889;SDS011;2459;42.268;23.112;2023-04-10T09:08:13;11.73;;;7.47;;
4889;SDS011;2459;42.268;23.112;2023-04-10T09:10:40;8.70;;;6.20;;
4889;SDS011;2459;42.268;23.112;2023-04-10T09:13:08;16.83;;;7.00;;
4889;SDS011;2459;42.268;23.112;2023-04-10T09:18:16;12.67;;;6.93;;
4889;SDS011;2459;42.268;23.112;2023-04-10T09:20:42;11.17;;;5.70;;
4889;SDS011;2459;42.268;23.112;2023-04-10T09:23:18;14.90;;;9.10;;
4889;SDS011;2459;42.268;23.112;2023-04-10T09:25:44;11.50;;;6.33;;
4889;SDS011;2459;42.268;23.112;2023-04-10T09:28:12;11.10;;;7.07;;
4889;SDS011;2459;42.268;23.112;2023-04-10T09:30:39;14.17;;;7.80;;
4889;SDS011;2459;42.268;23.112;2023-04-10T09:33:19;11.20;;;7.87;;
4889;SDS011;2459;42.268;23.112;2023-04-10T09:35:46;11.70;;;6.13;;
4889;SDS011;2459;42.268;23.112;2023-04-10T09:38:14;10.40;;;6.73;;
4889;SDS011;2459;42.268;23.112;2023-04-10T09:40:41;10.20;;;5.93;;
4889;SDS011;2459;42.268;23.112;2023-04-10T09:43:19;7.20;;;5.10;;
4889;SDS011;2459;42.268;23.112;2023-04-10T09:45:46;4.20;;;2.67;;
4889;SDS011;2459;42.268;23.112;2023-04-10T09:48:12;8.97;;;6.50;;
4889;SDS011;2459;42.268;23.112;2023-04-10T09:50:39;6.60;;;5.10;;
4889;SDS011;2459;42.268;23.112;2023-04-10T09:53:06;5.90;;;4.83;;
4889;SDS011;2459;42.268;23.112;2023-04-10T09:55:33;5.00;;;3.53;;
4889;SDS011;2459;42.268;23.112;2023-04-10T09:58:00;9.00;;;5.00;;
4889;SDS011;2459;42.268;23.112;2023-04-10T10:00:28;6.80;;;5.40;;
4889;SDS011;2459;42.268;23.112;2023-04-10T10:02:54;9.10;;;6.53;;
4889;SDS011;2459;42.268;23.112;2023-04-10T10:05:23;6.13;;;4.13;;
4889;SDS011;2459;42.268;23.112;2023-04-10T10:07:52;9.63;;;6.23;;
4889;SDS011;2459;42.268;23.112;2023-04-10T10:10:18;21.43;;;5.97;;
4889;SDS011;2459;42.268;23.112;2023-04-10T10:12:47;10.10;;;6.63;;
4889;SDS011;2459;42.268;23.112;2023-04-10T10:15:15;12.00;;;5.97;;
4889;SDS011;2459;42.268;23.112;2023-04-10T10:17:49;11.23;;;6.80;;
4889;SDS011;2459;42.268;23.112;2023-04-10T10:20:22;179.33;;;22.90;;
4889;SDS011;2459;42.268;23.112;2023-04-10T10:22:50;151.10;;;20.53;;
4889;SDS011;2459;42.268;23.112;2023-04-10T10:25:17;21.53;;;9.13;;
4889;SDS011;2459;42.268;23.112;2023-04-10T10:27:44;51.10;;;7.97;;
4889;SDS011;2459;42.268;23.112;2023-04-10T10:30:11;8.67;;;5.17;;
4889;SDS011;2459;42.268;23.112;2023-04-10T10:32:38;10.73;;;4.53;;
4889;SDS011;2459;42.268;23.112;2023-04-10T10:35:07;5.37;;;4.37;;
4889;SDS011;2459;42.268;23.112;2023-04-10T10:37:34;11.73;;;6.63;;
4889;SDS011;2459;42.268;23.112;2023-04-10T10:40:03;13.30;;;5.00;;
4889;SDS011;2459;42.268;23.112;2023-04-10T10:42:33;9.90;;;7.77;;
4889;SDS011;2459;42.268;23.112;2023-04-10T10:45:05;28.90;;;8.03;;
4889;SDS011;2459;42.268;23.112;2023-04-10T10:47:33;7.90;;;4.03;;
4889;SDS011;2459;42.268;23.112;2023-04-10T10:50:04;283.33;;;33.80;;
4889;SDS011;2459;42.268;23.112;2023-04-10T10:52:42;33.77;;;7.60;;
4889;SDS011;2459;42.268;23.112;2023-04-10T10:57:56;78.77;;;11.23;;
4889;SDS011;2459;42.268;23.112;2023-04-10T11:00:24;66.50;;;8.80;;
4889;SDS011;2459;42.268;23.112;2023-04-10T11:05:47;17.00;;;7.63;;
4889;SDS011;2459;42.268;23.112;2023-04-10T11:08:15;116.40;;;15.13;;
4889;SDS011;2459;42.268;23.112;2023-04-10T11:11:00;23.07;;;5.87;;
4889;SDS011;2459;42.268;23.112;2023-04-10T11:13:27;15.43;;;7.63;;
4889;SDS011;2459;42.268;23.112;2023-04-10T11:15:54;25.23;;;7.53;;
4889;SDS011;2459;42.268;23.112;2023-04-10T11:18:35;9.50;;;6.73;;
4889;SDS011;2459;42.268;23.112;2023-04-10T11:21:22;12.77;;;7.40;;
4889;SDS011;2459;42.268;23.112;2023-04-10T11:24:02;15.37;;;8.57;;
4889;SDS011;2459;42.268;23.112;2023-04-10T11:26:35;11.80;;;5.27;;
4889;SDS011;2459;42.268;23.112;2023-04-10T11:29:02;10.77;;;4.73;;
4889;SDS011;2459;42.268;23.112;2023-04-10T11:31:29;11.60;;;6.30;;
4889;SDS011;2459;42.268;23.112;2023-04-10T11:33:59;45.00;;;7.23;;
4889;SDS011;2459;42.268;23.112;2023-04-10T11:36:26;26.67;;;6.07;;
4889;SDS011;2459;42.268;23.112;2023-04-10T11:38:53;13.53;;;4.13;;
4889;SDS011;2459;42.268;23.112;2023-04-10T11:41:22;9.70;;;5.93;;
4889;SDS011;2459;42.268;23.112;2023-04-10T11:43:52;10.37;;;5.07;;
4889;SDS011;2459;42.268;23.112;2023-04-10T11:46:18;16.60;;;11.17;;
4889;SDS011;2459;42.268;23.112;2023-04-10T11:48:45;48.63;;;14.77;;
4889;SDS011;2459;42.268;23.112;2023-04-10T11:51:12;52.10;;;8.80;;
4889;SDS011;2459;42.268;23.112;2023-04-10T11:53:39;444.67;;;37.43;;
4889;SDS011;2459;42.268;23.112;2023-04-10T11:56:13;100.87;;;13.07;;
4889;SDS011;2459;42.268;23.112;2023-04-10T11:58:41;93.07;;;11.30;;
4889;SDS011;2459;42.268;23.112;2023-04-10T12:01:07;96.93;;;11.43;;
4889;SDS011;2459;42.268;23.112;2023-04-10T12:03:38;32.83;;;8.03;;
4889;SDS011;2459;42.268;23.112;2023-04-10T12:06:06;52.67;;;9.53;;
4889;SDS011;2459;42.268;23.112;2023-04-10T12:08:33;7.97;;;6.30;;
4889;SDS011;2459;42.268;23.112;2023-04-10T12:10:59;38.47;;;9.50;;
4889;SDS011;2459;42.268;23.112;2023-04-10T12:13:26;58.70;;;15.60;;
4889;SDS011;2459;42.268;23.112;2023-04-10T12:15:56;25.80;;;12.13;;
4889;SDS011;2459;42.268;23.112;2023-04-10T12:18:23;20.47;;;7.50;;
4889;SDS011;2459;42.268;23.112;2023-04-10T12:20:50;23.47;;;8.20;;
4889;SDS011;2459;42.268;23.112;2023-04-10T12:23:20;8.90;;;6.03;;
4889;SDS011;2459;42.268;23.112;2023-04-10T12:25:46;13.40;;;8.27;;
4889;SDS011;2459;42.268;23.112;2023-04-10T12:28:16;36.03;;;9.33;;
4889;SDS011;2459;42.268;23.112;2023-04-10T12:30:45;15.63;;;5.80;;
4889;SDS011;2459;42.268;23.112;2023-04-10T12:33:13;66.70;;;8.20;;
4889;SDS011;2459;42.268;23.112;2023-04-10T12:35:40;12.37;;;5.37;;
4889;SDS011;2459;42.268;23.112;2023-04-10T12:38:07;16.87;;;6.33;;
4889;SDS011;2459;42.268;23.112;2023-04-10T12:40:34;13.30;;;6.67;;
4889;SDS011;2459;42.268;23.112;2023-04-10T12:43:02;11.77;;;6.93;;
4889;SDS011;2459;42.268;23.112;2023-04-10T12:48:10;13.90;;;6.83;;
4889;SDS011;2459;42.268;23.112;2023-04-10T12:50:47;6.50;;;5.13;;
4889;SDS011;2459;42.268;23.112;2023-04-10T12:53:14;6.80;;;5.13;;
4889;SDS011;2459;42.268;23.112;2023-04-10T12:55:54;6.67;;;5.83;;
4889;SDS011;2459;42.268;23.112;2023-04-10T12:58:22;86.90;;;10.50;;
4889;SDS011;2459;42.268;23.112;2023-04-10T13:00:52;131.20;;;22.63;;
4889;SDS011;2459;42.268;23.112;2023-04-10T13:03:19;11.90;;;5.20;;
4889;SDS011;2459;42.268;23.112;2023-04-10T13:05:47;19.30;;;6.37;;
4889;SDS011;2459;42.268;23.112;2023-04-10T13:08:13;11.50;;;6.83;;
4889;SDS011;2459;42.268;23.112;2023-04-10T13:10:40;35.40;;;6.87;;
4889;SDS011;2459;42.268;23.112;2023-04-10T13:13:07;5.23;;;3.40;;
4889;SDS011;2459;42.268;23.112;2023-04-10T13:15:35;7.07;;;5.43;;
4889;SDS011;2459;42.268;23.112;2023-04-10T13:18:03;8.87;;;6.10;;
4889;SDS011;2459;42.268;23.112;2023-04-10T13:20:31;10.10;;;6.40;;
4889;SDS011;2459;42.268;23.112;2023-04-10T13:22:58;22.93;;;7.20;;
4889;SDS011;2459;42.268;23.112;2023-04-10T13:25:26;13.00;;;5.27;;
4889;SDS011;2459;42.268;23.112;2023-04-10T13:27:53;7.80;;;4.90;;
4889;SDS011;2459;42.268;23.112;2023-04-10T13:30:19;32.53;;;5.13;;
4889;SDS011;2459;42.268;23.112;2023-04-10T13:32:46;11.20;;;5.20;;
4889;SDS011;2459;42.268;23.112;2023-04-10T13:35:12;10.27;;;5.30;;
4889;SDS011;2459;42.268;23.112;2023-04-10T13:37:40;60.00;;;7.27;;
4889;SDS011;2459;42.268;23.112;2023-04-10T13:40:09;7.20;;;5.50;;
4889;SDS011;2459;42.268;23.112;2023-04-10T13:42:35;10.97;;;6.70;;
4889;SDS011;2459;42.268;23.112;2023-04-10T13:45:02;17.13;;;7.03;;
4889;SDS011;2459;42.268;23.112;2023-04-10T13:47:28;7.00;;;3.93;;
4889;SDS011;2459;42.268;23.112;2023-04-10T13:49:55;7.23;;;4.43;;
4889;SDS011;2459;42.268;23.112;2023-04-10T13:52:21;4.40;;;4.00;;
4889;SDS011;2459;42.268;23.112;2023-04-10T13:54:48;5.40;;;3.57;;
4889;SDS011;2459;42.268;23.112;2023-04-10T13:57:15;5.73;;;4.20;;
4889;SDS011;2459;42.268;23.112;2023-04-10T13:59:42;4.03;;;3.63;;
4889;SDS011;2459;42.268;23.112;2023-04-10T14:02:08;6.10;;;4.47;;
4889;SDS011;2459;42.268;23.112;2023-04-10T14:04:35;4.90;;;4.40;;
4889;SDS011;2459;42.268;23.112;2023-04-10T14:07:01;4.30;;;3.90;;
4889;SDS011;2459;42.268;23.112;2023-04-10T14:09:28;3.63;;;2.77;;
4889;SDS011;2459;42.268;23.112;2023-04-10T14:11:54;5.40;;;3.90;;
4889;SDS011;2459;42.268;23.112;2023-04-10T14:14:23;9.50;;;7.10;;
4889;SDS011;2459;42.268;23.112;2023-04-10T14:16:49;8.03;;;4.60;;
4889;SDS011;2459;42.268;23.112;2023-04-10T14:19:16;4.40;;;3.50;;
4889;SDS011;2459;42.268;23.112;2023-04-10T14:21:42;8.40;;;4.70;;
4889;SDS011;2459;42.268;23.112;2023-04-10T14:24:09;19.63;;;4.53;;
4889;SDS011;2459;42.268;23.112;2023-04-10T14:26:36;6.90;;;5.00;;
4889;SDS011;2459;42.268;23.112;2023-04-10T14:29:02;6.20;;;4.33;;
4889;SDS011;2459;42.268;23.112;2023-04-10T14:31:33;5.23;;;4.40;;
4889;SDS011;2459;42.268;23.112;2023-04-10T14:33:59;4.60;;;3.50;;
4889;SDS011;2459;42.268;23.112;2023-04-10T14:36:26;6.53;;;4.40;;
4889;SDS011;2459;42.268;23.112;2023-04-10T14:38:53;4.50;;;3.20;;
4889;SDS011;2459;42.268;23.112;2023-04-10T14:41:20;4.60;;;3.77;;
4889;SDS011;2459;42.268;23.112;2023-04-10T14:43:46;5.63;;;3.80;;
4889;SDS011;2459;42.268;23.112;2023-04-10T14:46:13;12.17;;;6.40;;
4889;SDS011;2459;42.268;23.112;2023-04-10T14:48:41;8.27;;;5.10;;
4889;SDS011;2459;42.268;23.112;2023-04-10T14:51:07;7.90;;;4.70;;
4889;SDS011;2459;42.268;23.112;2023-04-10T14:53:36;13.13;;;6.70;;
4889;SDS011;2459;42.268;23.112;2023-04-10T14:56:08;6.87;;;4.73;;